Time;durP1;ratioP1;P1;durP2;ratioP2;P2;SDS_P1;SDS_P2;PMS_P1;PMS_P2;Temp;Humidity;BMP_temperature;BMP_pressure;BME280_temperature;BME280_humidity;BME280_pressure;Samples;Min_cycle;Max_cycle;Signal;HPM_P1;HPM_P2
2024/01/19 00:00:10;;;;;;;87.32;53.38;;;14.70;52.50;;;;;;4922433;28;97461;-79
2024/01/19 00:02:36;;;;;;;87.68;53.17;;;14.60;52.40;;;;;;4936199;28;94684;-80
2024/01/19 00:05:03;;;;;;;88.35;53.55;;;14.60;52.40;;;;;;4932578;28;94029;-80
2024/01/19 00:07:29;;;;;;;87.45;52.97;;;14.60;52.50;;;;;;4932487;28;95198;-80
2024/01/19 00:09:55;;;;;;;86.38;52.85;;;14.60;52.50;;;;;;4921322;28;95028;-80
2024/01/19 00:12:20;;;;;;;87.13;53.00;;;14.50;52.50;;;;;;4913644;28;94650;-80
2024/01/19 00:14:46;;;;;;;87.45;53.47;;;14.50;52.60;;;;;;4909843;28;94855;-80
2024/01/19 00:17:12;;;;;;;86.95;53.10;;;14.40;52.60;;;;;;4908940;28;99045;-80
2024/01/19 00:19:37;;;;;;;87.50;53.47;;;14.40;52.70;;;;;;4905846;28;99963;-80
2024/01/19 00:22:03;;;;;;;88.15;53.28;;;14.50;52.80;;;;;;4906551;28;94851;-80
2024/01/19 00:24:29;;;;;;;86.30;52.95;;;14.40;52.80;;;;;;4904889;28;95146;-80
2024/01/19 00:26:55;;;;;;;87.63;53.45;;;14.40;52.90;;;;;;4905853;28;95827;-81
2024/01/19 00:29:21;;;;;;;86.95;52.80;;;14.40;52.90;;;;;;4904360;28;95468;-81
2024/01/19 00:31:48;;;;;;;86.68;53.20;;;14.30;52.90;;;;;;4907337;28;94585;-80
2024/01/19 00:34:14;;;;;;;85.60;52.95;;;14.30;52.90;;;;;;4904617;28;93745;-80
2024/01/19 00:36:41;;;;;;;86.88;53.25;;;14.30;53.00;;;;;;4903094;28;95720;-80
2024/01/19 00:39:07;;;;;;;88.07;52.90;;;14.30;52.90;;;;;;4912459;28;98685;-80
2024/01/19 00:41:32;;;;;;;86.50;53.03;;;14.20;53.00;;;;;;4901741;28;95532;-81
2024/01/19 00:43:58;;;;;;;86.90;53.13;;;14.30;53.10;;;;;;4901054;28;94688;-80
2024/01/19 00:46:24;;;;;;;85.72;52.60;;;14.20;53.00;;;;;;4901557;28;98708;-80
2024/01/19 00:48:50;;;;;;;86.32;53.03;;;14.20;53.00;;;;;;4902581;28;96247;-80
2024/01/19 00:51:16;;;;;;;87.45;53.05;;;14.20;53.00;;;;;;4901484;28;98893;-80
2024/01/19 00:53:43;;;;;;;85.60;52.75;;;14.10;53.00;;;;;;4906172;28;95212;-80
2024/01/19 00:56:09;;;;;;;85.80;52.83;;;14.10;53.00;;;;;;4902545;28;96987;-80
2024/01/19 00:58:37;;;;;;;86.47;52.95;;;14.10;53.10;;;;;;4901002;28;94592;-80
2024/01/19 01:01:04;;;;;;;87.07;53.42;;;14.10;53.10;;;;;;4901580;28;95825;-80
2024/01/19 01:03:30;;;;;;;85.95;52.80;;;14.10;53.00;;;;;;4901110;28;96092;-80
2024/01/19 01:05:56;;;;;;;85.20;52.63;;;14.00;53.00;;;;;;4901284;28;96925;-80
2024/01/19 01:08:27;;;;;;;87.30;53.50;;;14.00;53.10;;;;;;4901527;28;95676;-80
2024/01/19 01:10:54;;;;;;;85.63;52.70;;;14.00;53.10;;;;;;4903702;28;95014;-80
2024/01/19 01:13:20;;;;;;;87.30;53.13;;;14.00;53.00;;;;;;4903081;28;94543;-80
2024/01/19 01:15:46;;;;;;;86.82;52.88;;;13.90;53.10;;;;;;4905757;28;95638;-80
2024/01/19 01:18:12;;;;;;;85.07;52.75;;;13.90;53.10;;;;;;4905433;28;96347;-80
2024/01/19 01:20:38;;;;;;;86.85;53.05;;;13.90;53.10;;;;;;4906023;28;94682;-80
2024/01/19 01:23:04;;;;;;;87.60;53.30;;;13.90;53.10;;;;;;4902887;28;94559;-80
2024/01/19 01:25:31;;;;;;;86.47;52.67;;;13.90;53.10;;;;;;4903522;28;95282;-80
2024/01/19 01:27:56;;;;;;;85.38;53.05;;;13.80;53.60;;;;;;4900365;28;97102;-80
2024/01/19 01:30:23;;;;;;;86.43;53.22;;;13.80;53.00;;;;;;4905439;28;96142;-79
2024/01/19 01:32:49;;;;;;;87.30;52.95;;;13.80;53.00;;;;;;4906833;28;94187;-79
2024/01/19 01:35:14;;;;;;;86.75;52.78;;;13.80;53.10;;;;;;4909819;28;95076;-80
2024/01/19 01:37:40;;;;;;;86.25;53.08;;;13.80;53.20;;;;;;4912720;28;95199;-80
2024/01/19 01:40:07;;;;;;;85.55;52.53;;;13.70;53.20;;;;;;4913819;28;94996;-80
2024/01/19 01:42:33;;;;;;;84.93;52.83;;;13.80;53.40;;;;;;4904422;28;95139;-80
2024/01/19 01:45:00;;;;;;;85.15;52.58;;;13.80;53.40;;;;;;4902869;28;97029;-80
2024/01/19 01:47:26;;;;;;;85.28;52.75;;;13.70;53.40;;;;;;4902669;28;97930;-80
2024/01/19 01:49:54;;;;;;;85.65;52.92;;;13.70;53.40;;;;;;4902077;28;95176;-80
2024/01/19 01:52:19;;;;;;;84.50;52.50;;;13.70;53.50;;;;;;4902416;28;94146;-78
2024/01/19 01:54:46;;;;;;;86.10;53.03;;;13.70;53.50;;;;;;4904050;28;96275;-80
2024/01/19 01:57:14;;;;;;;84.78;52.60;;;13.70;53.60;;;;;;4915372;28;98993;-81
2024/01/19 01:59:40;;;;;;;84.70;52.60;;;13.70;53.70;;;;;;4904368;28;95531;-81
2024/01/19 02:02:06;;;;;;;86.75;53.30;;;13.70;53.70;;;;;;4902991;28;95322;-81
2024/01/19 02:04:34;;;;;;;85.80;52.65;;;13.60;53.70;;;;;;4901434;28;94760;-81
2024/01/19 02:06:59;;;;;;;85.00;52.65;;;13.60;53.70;;;;;;4903342;28;94667;-80
2024/01/19 02:09:25;;;;;;;84.82;52.53;;;13.60;53.80;;;;;;4899093;28;94854;-81
2024/01/19 02:11:52;;;;;;;84.03;52.33;;;13.50;53.70;;;;;;4906245;28;95095;-81
2024/01/19 02:14:18;;;;;;;85.65;52.35;;;13.50;53.80;;;;;;4903127;28;95451;-81
2024/01/19 02:16:43;;;;;;;84.68;52.60;;;13.50;53.90;;;;;;4903794;28;94996;-81
2024/01/19 02:19:09;;;;;;;84.35;51.92;;;13.50;53.80;;;;;;4901581;28;99539;-80
2024/01/19 02:21:35;;;;;;;85.68;52.78;;;13.50;53.80;;;;;;4903536;28;94604;-80
2024/01/19 02:24:03;;;;;;;86.65;52.78;;;13.50;53.90;;;;;;4905972;28;96185;-81
2024/01/19 02:26:33;;;;;;;84.90;52.63;;;13.40;53.80;;;;;;4900396;28;94666;-81
2024/01/19 02:28:59;;;;;;;85.47;52.70;;;13.50;53.90;;;;;;4903764;28;94501;-81
2024/01/19 02:31:25;;;;;;;84.68;52.45;;;13.40;53.90;;;;;;4903368;28;94248;-81
2024/01/19 02:33:51;;;;;;;84.63;52.28;;;13.30;53.80;;;;;;4903272;28;95674;-81
2024/01/19 02:36:17;;;;;;;84.10;52.33;;;13.30;53.90;;;;;;4906286;28;94824;-81
2024/01/19 02:38:43;;;;;;;84.75;52.47;;;13.30;53.80;;;;;;4901780;28;95158;-80
2024/01/19 02:41:09;;;;;;;85.00;52.67;;;13.30;53.90;;;;;;4902993;28;95114;-81
2024/01/19 02:43:35;;;;;;;84.30;52.15;;;13.30;53.80;;;;;;4902654;28;99753;-80
2024/01/19 02:46:00;;;;;;;84.85;52.67;;;13.30;53.80;;;;;;4902393;28;97677;-81
2024/01/19 02:48:26;;;;;;;84.78;52.58;;;13.20;53.80;;;;;;4918782;28;94126;-81
2024/01/19 02:50:51;;;;;;;84.78;52.85;;;13.20;53.70;;;;;;4908447;28;94977;-82
2024/01/19 02:53:17;;;;;;;84.60;52.72;;;13.20;53.80;;;;;;4903858;28;94580;-81
2024/01/19 02:55:43;;;;;;;83.72;52.33;;;13.20;53.70;;;;;;4902726;28;94823;-81
2024/01/19 02:58:08;;;;;;;83.68;52.17;;;13.20;53.70;;;;;;4904367;28;94754;-82
2024/01/19 03:00:34;;;;;;;85.55;52.60;;;13.10;53.80;;;;;;4910121;28;93522;-82
2024/01/19 03:03:00;;;;;;;84.18;52.90;;;13.10;53.80;;;;;;4903459;28;94870;-82
2024/01/19 03:05:25;;;;;;;83.90;52.40;;;13.10;53.80;;;;;;4905652;28;94305;-81
2024/01/19 03:07:51;;;;;;;83.53;52.50;;;13.10;53.90;;;;;;4901144;28;95673;-80
2024/01/19 03:10:16;;;;;;;85.47;53.05;;;13.10;53.90;;;;;;4906323;28;94078;-80
2024/01/19 03:12:43;;;;;;;83.57;52.42;;;13.00;53.80;;;;;;4928966;28;95183;-81
2024/01/19 03:15:09;;;;;;;83.93;52.30;;;13.00;53.80;;;;;;4936682;28;94492;-80
2024/01/19 03:17:34;;;;;;;82.57;51.90;;;13.10;53.80;;;;;;4930901;28;95349;-81
2024/01/19 03:20:00;;;;;;;85.35;52.35;;;13.00;53.80;;;;;;4925384;28;93995;-80
2024/01/19 03:22:28;;;;;;;83.32;52.28;;;13.00;53.90;;;;;;4911841;28;94652;-80
2024/01/19 03:24:53;;;;;;;83.53;52.17;;;13.00;54.00;;;;;;4910562;28;94842;-80
2024/01/19 03:27:19;;;;;;;84.03;52.72;;;13.00;54.00;;;;;;4911334;28;94753;-80
2024/01/19 03:29:47;;;;;;;84.95;52.65;;;12.90;54.00;;;;;;4911827;28;95030;-81
2024/01/19 03:32:13;;;;;;;83.63;52.70;;;12.90;54.00;;;;;;4906305;28;97408;-82
2024/01/19 03:34:40;;;;;;;83.35;52.25;;;12.90;54.10;;;;;;4906036;28;96215;-81
2024/01/19 03:37:05;;;;;;;84.28;52.63;;;12.90;54.00;;;;;;4907414;28;94450;-81
2024/01/19 03:39:32;;;;;;;84.18;52.63;;;12.90;54.00;;;;;;4905347;28;94793;-81
2024/01/19 03:41:59;;;;;;;83.93;52.65;;;12.90;54.00;;;;;;4905841;28;98015;-81
2024/01/19 03:44:25;;;;;;;85.97;52.85;;;12.90;54.00;;;;;;4906047;28;95507;-81
2024/01/19 03:46:51;;;;;;;83.45;52.33;;;12.90;54.00;;;;;;4907270;28;94079;-81
2024/01/19 03:49:17;;;;;;;84.03;52.90;;;12.90;54.10;;;;;;4906765;28;93591;-81
2024/01/19 03:52:02;;;;;;;85.63;53.08;;;12.80;54.10;;;;;;4908518;28;95281;-81
2024/01/19 03:54:28;;;;;;;82.88;52.20;;;12.80;54.20;;;;;;4907281;28;96271;-78
2024/01/19 03:56:58;;;;;;;84.63;52.47;;;12.80;54.20;;;;;;4906475;28;95205;-80
2024/01/19 03:59:24;;;;;;;84.18;52.42;;;12.80;54.30;;;;;;4909366;28;93835;-79
2024/01/19 04:01:51;;;;;;;84.35;52.67;;;12.70;54.30;;;;;;4906978;28;96187;-81
2024/01/19 04:04:16;;;;;;;83.85;52.78;;;12.70;54.40;;;;;;4906669;28;97712;-81
2024/01/19 04:06:42;;;;;;;83.30;52.35;;;12.70;54.40;;;;;;4908928;28;95065;-81
2024/01/19 04:09:08;;;;;;;84.05;52.45;;;12.70;54.40;;;;;;4907369;28;94011;-80
2024/01/19 04:11:35;;;;;;;86.30;52.92;;;12.70;54.40;;;;;;4904975;28;97120;-81
2024/01/19 04:14:00;;;;;;;84.90;53.10;;;12.70;54.40;;;;;;4906137;28;94872;-81
2024/01/19 04:16:26;;;;;;;83.22;52.45;;;12.70;54.30;;;;;;4905323;28;93947;-80
2024/01/19 04:18:52;;;;;;;83.68;52.65;;;12.70;54.40;;;;;;4909661;28;94847;-81
2024/01/19 04:21:17;;;;;;;84.28;52.67;;;12.70;54.30;;;;;;4904810;28;97679;-81
2024/01/19 04:23:44;;;;;;;84.18;52.50;;;12.60;54.20;;;;;;4904822;28;95970;-80
2024/01/19 04:26:10;;;;;;;84.25;52.58;;;12.60;54.20;;;;;;4908014;28;94240;-81
2024/01/19 04:28:39;;;;;;;85.03;52.78;;;12.60;54.20;;;;;;4906227;28;98638;-81
2024/01/19 04:31:08;;;;;;;84.18;52.70;;;12.60;54.30;;;;;;4908078;28;95084;-81
2024/01/19 04:33:34;;;;;;;84.00;52.88;;;12.50;54.10;;;;;;4905818;28;95395;-81
2024/01/19 04:35:59;;;;;;;83.90;53.08;;;12.50;54.10;;;;;;4908979;28;94271;-81
2024/01/19 04:38:25;;;;;;;83.30;52.97;;;12.50;54.20;;;;;;4910457;28;93355;-80
2024/01/19 04:40:51;;;;;;;84.88;52.70;;;12.50;54.10;;;;;;4909890;28;95134;-81
2024/01/19 04:43:17;;;;;;;84.43;52.75;;;12.50;54.10;;;;;;4909732;28;94344;-81
2024/01/19 04:45:44;;;;;;;84.57;53.00;;;12.50;54.10;;;;;;4905571;28;95846;-81
2024/01/19 04:48:10;;;;;;;84.65;52.97;;;12.50;54.10;;;;;;4911230;28;94740;-80
2024/01/19 04:50:35;;;;;;;85.72;53.67;;;12.50;54.10;;;;;;4906548;28;94709;-81
2024/01/19 04:53:01;;;;;;;84.68;52.95;;;12.50;54.20;;;;;;4903149;28;94125;-81
2024/01/19 04:55:27;;;;;;;84.32;53.47;;;12.40;54.00;;;;;;4908937;28;95490;-79
2024/01/19 04:57:53;;;;;;;85.80;52.90;;;12.40;54.00;;;;;;4910188;28;94483;-79
2024/01/19 05:00:21;;;;;;;85.53;53.63;;;12.50;54.20;;;;;;4907551;28;94361;-78
2024/01/19 05:02:47;;;;;;;83.75;52.35;;;12.50;54.20;;;;;;4904244;28;94887;-79
2024/01/19 05:05:13;;;;;;;83.28;53.03;;;12.40;54.20;;;;;;4904237;28;94707;-78
2024/01/19 05:07:39;;;;;;;83.32;52.40;;;12.40;54.20;;;;;;4903337;28;99177;-78
2024/01/19 05:10:06;;;;;;;84.38;53.30;;;12.40;54.10;;;;;;4905082;28;96058;-80
2024/01/19 05:12:32;;;;;;;84.30;52.83;;;12.40;54.20;;;;;;4902671;28;98265;-81
2024/01/19 05:14:57;;;;;;;84.97;52.72;;;12.40;54.10;;;;;;4902789;28;94559;-83
2024/01/19 05:17:23;;;;;;;82.65;52.70;;;12.30;54.30;;;;;;4899874;28;95698;-80
2024/01/19 05:19:49;;;;;;;83.93;52.70;;;12.40;54.30;;;;;;4899782;28;94960;-80
2024/01/19 05:22:14;;;;;;;84.85;53.10;;;12.40;54.30;;;;;;4901253;28;97954;-80
2024/01/19 05:24:45;;;;;;;84.63;53.08;;;12.30;54.30;;;;;;4904284;28;95687;-81
2024/01/19 05:27:11;;;;;;;84.78;52.97;;;12.30;54.30;;;;;;4903731;28;93231;-79
2024/01/19 05:29:37;;;;;;;83.75;53.08;;;12.30;54.40;;;;;;4903101;28;94783;-80
2024/01/19 05:32:03;;;;;;;83.72;53.15;;;12.20;54.30;;;;;;4901749;28;94999;-80
2024/01/19 05:34:30;;;;;;;83.18;53.10;;;12.30;54.30;;;;;;4902460;28;95479;-80
2024/01/19 05:36:56;;;;;;;83.60;52.70;;;12.20;54.20;;;;;;4901036;28;94501;-81
2024/01/19 05:39:21;;;;;;;83.22;52.85;;;12.30;54.30;;;;;;4895820;28;95208;-78
2024/01/19 05:41:47;;;;;;;84.00;52.90;;;12.20;54.10;;;;;;4900148;28;94941;-76
2024/01/19 05:44:13;;;;;;;83.30;53.08;;;12.20;54.00;;;;;;4901342;28;94228;-77
2024/01/19 05:46:39;;;;;;;85.80;53.25;;;12.10;53.90;;;;;;4903918;28;95529;-78
2024/01/19 05:49:05;;;;;;;85.43;53.60;;;12.10;53.90;;;;;;4904033;28;95678;-76
2024/01/19 05:51:31;;;;;;;85.03;53.53;;;12.00;53.90;;;;;;4900664;28;95935;-78
2024/01/19 05:53:58;;;;;;;85.32;54.03;;;12.00;54.00;;;;;;4902579;28;94905;-77
2024/01/19 05:56:24;;;;;;;88.35;56.22;;;12.00;54.00;;;;;;4902854;28;94776;-78
2024/01/19 05:58:50;;;;;;;91.97;57.67;;;12.00;53.60;;;;;;4898134;28;100669;-78
2024/01/19 06:01:15;;;;;;;89.50;56.80;;;12.10;53.40;;;;;;4900434;28;95133;-77
2024/01/19 06:03:41;;;;;;;88.95;57.05;;;12.30;53.40;;;;;;4900216;28;98382;-78
2024/01/19 06:06:07;;;;;;;91.07;56.40;;;12.40;53.10;;;;;;4901422;28;94656;-79
2024/01/19 06:08:33;;;;;;;89.45;56.45;;;12.50;52.90;;;;;;4894923;28;97538;-76
2024/01/19 06:10:59;;;;;;;88.22;55.60;;;12.60;52.80;;;;;;4896942;28;95469;-75
2024/01/19 06:13:24;;;;;;;87.45;55.95;;;12.70;52.70;;;;;;4895900;28;94722;-79
2024/01/19 06:15:50;;;;;;;91.53;55.22;;;12.80;52.90;;;;;;4897590;28;94168;-76
2024/01/19 06:18:16;;;;;;;91.15;55.85;;;12.90;52.70;;;;;;4895894;28;95225;-76
2024/01/19 06:20:42;;;;;;;93.72;56.00;;;12.90;52.70;;;;;;4900398;28;96008;-77
2024/01/19 06:23:09;;;;;;;88.45;55.17;;;12.90;52.70;;;;;;4898714;28;95955;-79
2024/01/19 06:25:35;;;;;;;90.00;55.33;;;12.90;52.70;;;;;;4896084;28;96387;-79
2024/01/19 06:28:01;;;;;;;88.53;55.25;;;12.90;52.90;;;;;;4906882;28;95896;-76
2024/01/19 06:30:27;;;;;;;91.00;55.15;;;13.00;53.00;;;;;;4893144;28;97460;-77
2024/01/19 06:32:52;;;;;;;90.10;55.05;;;12.90;52.80;;;;;;4894979;28;95065;-77
2024/01/19 06:35:18;;;;;;;104.25;67.20;;;13.00;53.00;;;;;;4902560;28;94715;-78
2024/01/19 06:37:43;;;;;;;106.57;65.13;;;13.00;53.20;;;;;;4896633;28;95179;-76
2024/01/19 06:40:10;;;;;;;102.00;61.75;;;13.00;53.30;;;;;;4902876;28;94460;-77
2024/01/19 06:42:37;;;;;;;95.78;60.65;;;12.90;53.20;;;;;;4909848;28;96820;-78
2024/01/19 06:45:04;;;;;;;95.97;60.33;;;13.00;53.20;;;;;;4906731;28;94916;-78
2024/01/19 06:47:29;;;;;;;95.68;59.65;;;13.10;53.40;;;;;;4908768;28;96108;-83
2024/01/19 06:49:55;;;;;;;95.78;59.55;;;13.00;53.20;;;;;;4925710;28;100528;-83
2024/01/19 06:52:21;;;;;;;96.85;59.08;;;13.00;53.50;;;;;;4904491;28;95462;-84
2024/01/19 06:54:46;;;;;;;94.90;58.58;;;13.00;53.40;;;;;;4906412;28;94747;-83
2024/01/19 06:57:12;;;;;;;94.95;58.53;;;13.00;53.30;;;;;;4903671;28;94994;-83
2024/01/19 06:59:38;;;;;;;95.63;58.53;;;13.00;53.20;;;;;;4905314;28;94844;-83
2024/01/19 07:02:04;;;;;;;93.30;58.13;;;13.00;53.10;;;;;;4907485;28;95265;-83
2024/01/19 07:04:30;;;;;;;93.68;58.58;;;13.00;53.10;;;;;;4900190;28;93470;-83
2024/01/19 07:06:56;;;;;;;93.90;57.95;;;13.00;53.10;;;;;;4902307;28;94386;-83
2024/01/19 07:09:21;;;;;;;92.32;57.45;;;12.90;53.00;;;;;;4901617;28;97044;-83
2024/01/19 07:11:47;;;;;;;91.82;57.35;;;12.90;52.90;;;;;;4897290;28;95584;-84
2024/01/19 07:14:13;;;;;;;102.78;63.58;;;12.90;52.90;;;;;;4900950;28;98816;-81
2024/01/19 07:16:40;;;;;;;105.78;68.90;;;12.90;53.00;;;;;;4901035;28;95760;-81
2024/01/19 07:19:05;;;;;;;106.63;66.85;;;13.00;53.00;;;;;;4894778;28;96643;-73
2024/01/19 07:21:39;;;;;;;107.53;65.45;;;13.10;52.90;;;;;;4885161;28;95766;-74
2024/01/19 07:24:09;;;;;;;106.65;63.53;;;13.10;52.90;;;;;;4888131;28;96000;-74
2024/01/19 07:26:36;;;;;;;101.68;62.45;;;13.10;53.00;;;;;;4887512;28;95609;-73
2024/01/19 07:29:06;;;;;;;103.55;61.17;;;13.10;52.90;;;;;;4888280;28;95758;-73
2024/01/19 07:31:36;;;;;;;103.80;61.33;;;13.10;53.20;;;;;;4896672;28;98666;-73
2024/01/19 07:34:01;;;;;;;97.70;60.38;;;13.20;53.50;;;;;;4890063;28;96245;-73
2024/01/19 07:36:27;;;;;;;104.30;59.60;;;13.10;53.90;;;;;;4896140;28;96461;-75
2024/01/19 07:38:54;;;;;;;101.15;59.28;;;13.20;54.30;;;;;;4896881;28;96707;-76
2024/01/19 07:41:20;;;;;;;102.53;59.10;;;13.20;55.10;;;;;;4894260;28;94952;-75
2024/01/19 07:43:45;;;;;;;103.22;59.28;;;13.10;54.50;;;;;;4893795;28;99609;-73
2024/01/19 07:46:12;;;;;;;103.65;59.33;;;13.20;55.00;;;;;;4890531;28;96570;-79
2024/01/19 07:48:38;;;;;;;102.40;58.75;;;13.30;55.30;;;;;;4891361;28;94966;-85
2024/01/19 07:51:04;;;;;;;98.82;58.78;;;13.30;55.20;;;;;;4910044;28;95253;-80
2024/01/19 07:53:31;;;;;;;105.20;58.88;;;13.40;55.30;;;;;;4899312;28;94731;-81
2024/01/19 07:55:57;;;;;;;99.85;58.20;;;13.50;55.20;;;;;;4899527;28;95806;-81
2024/01/19 07:58:23;;;;;;;98.47;57.95;;;13.60;55.20;;;;;;4896840;28;98836;-81
2024/01/19 08:00:48;;;;;;;95.38;57.80;;;13.70;55.00;;;;;;4897743;28;95656;-82
2024/01/19 08:03:15;;;;;;;99.95;58.03;;;13.80;54.90;;;;;;4891875;28;94633;-80
2024/01/19 08:05:41;;;;;;;104.07;57.50;;;13.80;57.80;;;;;;4901431;28;95011;-81
2024/01/19 08:08:06;;;;;;;98.78;58.08;;;13.90;57.40;;;;;;4900646;28;94821;-81
2024/01/19 08:10:35;;;;;;;97.57;57.63;;;13.90;57.00;;;;;;4899121;28;94800;-81
2024/01/19 08:13:01;;;;;;;98.55;57.65;;;13.80;56.60;;;;;;4897449;28;94618;-81
2024/01/19 08:15:26;;;;;;;98.93;58.13;;;13.90;56.80;;;;;;4901492;28;94404;-81
2024/01/19 08:17:52;;;;;;;102.72;58.22;;;14.00;56.40;;;;;;4899773;28;95256;-81
2024/01/19 08:20:18;;;;;;;96.50;57.17;;;14.00;55.60;;;;;;4898001;28;94303;-80
2024/01/19 08:22:43;;;;;;;96.78;57.28;;;14.10;55.40;;;;;;4896597;28;95888;-81
2024/01/19 08:25:09;;;;;;;99.38;58.47;;;14.00;55.90;;;;;;4893309;28;99924;-76
2024/01/19 08:27:39;;;;;;;93.68;56.80;;;14.10;55.40;;;;;;4903992;28;95767;-80
2024/01/19 08:30:12;;;;;;;96.00;56.97;;;14.20;55.80;;;;;;4897885;28;95173;-79
2024/01/19 08:32:37;;;;;;;98.22;57.60;;;14.40;55.30;;;;;;4899618;28;94808;-77
2024/01/19 08:35:08;;;;;;;97.18;58.08;;;14.50;55.20;;;;;;4894058;28;96535;-79
2024/01/19 08:37:38;;;;;;;102.03;57.42;;;14.60;54.70;;;;;;4892637;28;94951;-76
2024/01/19 08:40:08;;;;;;;95.93;57.40;;;14.70;54.90;;;;;;4892423;28;95808;-78
2024/01/19 08:42:34;;;;;;;95.33;57.57;;;14.70;54.60;;;;;;4897015;28;95260;-82
2024/01/19 08:45:00;;;;;;;99.20;57.35;;;14.80;54.20;;;;;;4896441;28;94774;-82
2024/01/19 08:47:26;;;;;;;97.80;56.67;;;14.80;54.30;;;;;;4895415;28;98690;-82
2024/01/19 08:49:52;;;;;;;97.25;57.65;;;14.70;54.00;;;;;;4900425;28;95224;-81
2024/01/19 08:52:17;;;;;;;98.25;57.85;;;14.70;54.40;;;;;;4895806;28;94720;-80
2024/01/19 08:54:43;;;;;;;95.43;57.13;;;14.60;53.80;;;;;;4894357;28;96070;-82
2024/01/19 08:57:09;;;;;;;94.93;57.33;;;14.60;53.90;;;;;;4897116;28;95706;-83
2024/01/19 08:59:34;;;;;;;95.35;57.20;;;14.70;53.80;;;;;;4893744;28;94919;-76
2024/01/19 09:02:00;;;;;;;97.53;57.45;;;14.70;53.90;;;;;;4895918;28;95551;-76
2024/01/19 09:04:26;;;;;;;102.22;57.17;;;14.70;54.00;;;;;;4898788;28;96995;-75
2024/01/19 09:06:51;;;;;;;97.70;57.70;;;14.80;54.40;;;;;;4893702;28;95360;-78
2024/01/19 09:09:17;;;;;;;96.97;57.03;;;14.80;54.50;;;;;;4898053;28;96224;-79
2024/01/19 09:11:43;;;;;;;97.55;57.70;;;14.80;54.40;;;;;;4886514;28;94971;-80
2024/01/19 09:14:09;;;;;;;96.22;57.53;;;14.80;54.40;;;;;;4891133;28;96214;-78
2024/01/19 09:16:35;;;;;;;96.07;57.58;;;14.80;54.40;;;;;;4896153;28;99696;-77
2024/01/19 09:19:01;;;;;;;96.53;57.28;;;14.80;54.30;;;;;;4896921;28;96043;-77
2024/01/19 09:21:26;;;;;;;100.15;57.90;;;14.70;54.70;;;;;;4894868;28;97287;-79
2024/01/19 09:23:53;;;;;;;97.28;57.33;;;14.80;55.20;;;;;;4899833;28;95558;-81
2024/01/19 09:26:22;;;;;;;99.35;57.90;;;15.00;55.10;;;;;;4901729;28;94580;-84
2024/01/19 09:28:48;;;;;;;96.93;56.55;;;15.00;55.20;;;;;;4897756;28;94716;-80
2024/01/19 09:31:14;;;;;;;94.80;56.53;;;15.10;55.30;;;;;;4908001;28;94593;-82
2024/01/19 09:33:40;;;;;;;98.55;57.60;;;15.10;55.30;;;;;;4903225;28;94977;-84
2024/01/19 09:36:06;;;;;;;96.50;57.45;;;15.30;55.30;;;;;;4900846;28;95007;-78
2024/01/19 09:38:37;;;;;;;98.03;57.08;;;15.30;55.40;;;;;;4898009;28;96134;-78
2024/01/19 09:41:27;;;;;;;97.28;56.85;;;15.40;55.40;;;;;;4899517;28;95432;-78
2024/01/19 09:43:58;;;;;;;95.07;56.67;;;15.40;55.70;;;;;;4898329;28;97344;-77
2024/01/19 09:46:28;;;;;;;97.07;57.08;;;15.40;56.00;;;;;;4897087;28;97348;-77
2024/01/19 09:49:09;;;;;;;94.57;57.13;;;15.50;55.90;;;;;;4899068;28;94738;-81
2024/01/19 09:51:50;;;;;;;95.35;56.78;;;15.70;56.00;;;;;;4900788;28;95733;-86
2024/01/19 09:54:24;;;;;;;94.35;56.85;;;15.70;56.10;;;;;;4903912;28;96356;-83
2024/01/19 09:56:50;;;;;;;96.90;56.75;;;15.80;55.80;;;;;;4906107;28;95433;-84
2024/01/19 09:59:16;;;;;;;99.55;56.28;;;15.90;56.30;;;;;;4904807;28;95411;-83
2024/01/19 10:01:42;;;;;;;97.60;56.95;;;15.80;55.90;;;;;;4902985;28;97005;-81
2024/01/19 10:04:13;;;;;;;96.22;56.53;;;15.90;56.30;;;;;;4902336;28;96750;-85
2024/01/19 10:06:39;;;;;;;94.30;55.63;;;16.00;56.50;;;;;;4900059;28;95054;-82
2024/01/19 10:09:05;;;;;;;93.95;56.33;;;16.00;56.70;;;;;;4902095;28;94315;-82
2024/01/19 10:11:32;;;;;;;94.00;55.75;;;16.00;56.40;;;;;;4901917;28;95296;-79
2024/01/19 10:13:58;;;;;;;98.95;56.85;;;16.10;56.60;;;;;;4903875;28;95428;-82
2024/01/19 10:16:23;;;;;;;95.75;56.55;;;16.10;56.40;;;;;;4900084;28;95091;-82
2024/01/19 10:18:49;;;;;;;93.32;56.35;;;16.10;56.40;;;;;;4901297;28;96591;-84
2024/01/19 10:21:29;;;;;;;93.63;55.53;;;16.10;56.40;;;;;;4900720;28;93628;-84
2024/01/19 10:24:15;;;;;;;94.25;56.25;;;16.20;56.70;;;;;;4900630;28;95115;-83
2024/01/19 10:26:42;;;;;;;94.63;55.53;;;16.30;56.80;;;;;;4897626;28;95028;-83
2024/01/19 10:29:14;;;;;;;95.47;56.80;;;16.40;56.80;;;;;;4901794;28;95975;-79
2024/01/19 10:31:42;;;;;;;97.75;57.67;;;16.50;58.40;;;;;;4901865;28;94696;-82
2024/01/19 10:34:22;;;;;;;100.65;58.10;;;16.60;59.70;;;;;;4897189;28;98943;-82
2024/01/19 10:36:48;;;;;;;96.93;57.78;;;16.50;61.80;;;;;;4895789;28;96881;-84
2024/01/19 10:39:25;;;;;;;98.53;58.38;;;16.40;60.80;;;;;;4895888;28;95402;-82
2024/01/19 10:42:04;;;;;;;101.40;58.15;;;16.50;58.80;;;;;;4912108;28;94612;-83
2024/01/19 10:44:29;;;;;;;98.03;58.20;;;16.70;57.30;;;;;;4892672;28;95765;-82
2024/01/19 10:46:59;;;;;;;98.38;58.50;;;16.70;56.10;;;;;;4901007;28;95676;-81
2024/01/19 10:49:24;;;;;;;101.90;59.03;;;16.70;55.70;;;;;;4897222;28;95438;-82
2024/01/19 10:51:50;;;;;;;98.75;59.08;;;16.70;55.00;;;;;;4893594;28;95088;-77
2024/01/19 10:54:29;;;;;;;102.28;58.47;;;16.80;54.80;;;;;;4896206;28;95907;-75
2024/01/19 10:57:05;;;;;;;101.72;59.38;;;16.90;54.90;;;;;;4894276;28;96149;-76
2024/01/19 10:59:31;;;;;;;100.18;58.58;;;16.90;54.50;;;;;;4893049;28;99563;-75
2024/01/19 11:02:02;;;;;;;100.18;59.63;;;17.00;54.10;;;;;;4895941;28;95641;-76
2024/01/19 11:04:28;;;;;;;101.32;58.28;;;17.00;54.00;;;;;;4896182;28;95910;-82
2024/01/19 11:06:54;;;;;;;101.38;59.03;;;17.00;53.90;;;;;;4897288;28;95788;-76
2024/01/19 11:09:19;;;;;;;102.10;59.08;;;16.90;53.00;;;;;;4891815;28;95915;-74
2024/01/19 11:11:57;;;;;;;101.07;59.10;;;17.00;52.70;;;;;;4894168;28;97641;-78
2024/01/19 11:14:24;;;;;;;103.10;59.28;;;17.10;52.60;;;;;;4899040;28;94774;-78
2024/01/19 11:16:53;;;;;;;97.82;58.30;;;17.20;52.60;;;;;;4896027;28;95271;-77
2024/01/19 11:19:20;;;;;;;100.75;58.38;;;17.20;52.40;;;;;;4899307;28;96393;-84
2024/01/19 11:21:46;;;;;;;101.90;58.53;;;17.30;52.40;;;;;;4896295;28;94426;-82
2024/01/19 11:24:14;;;;;;;99.22;58.45;;;17.20;52.00;;;;;;4899690;28;95231;-83
2024/01/19 11:26:45;;;;;;;98.50;57.85;;;17.30;51.70;;;;;;4893895;28;96639;-83
2024/01/19 11:29:25;;;;;;;102.50;58.63;;;17.40;51.60;;;;;;4914712;28;95399;-83
2024/01/19 11:31:51;;;;;;;99.93;57.75;;;17.40;51.20;;;;;;4901762;28;95276;-83
2024/01/19 11:34:47;;;;;;;100.55;58.38;;;17.50;51.00;;;;;;4896494;28;96350;-83
2024/01/19 11:37:45;;;;;;;100.25;58.53;;;17.50;50.90;;;;;;4894688;28;95599;-85
2024/01/19 11:40:32;;;;;;;100.00;58.08;;;17.50;50.90;;;;;;4896267;28;96621;-85
2024/01/19 11:42:57;;;;;;;100.35;58.50;;;17.50;50.70;;;;;;4891809;28;95251;-84
2024/01/19 11:45:39;;;;;;;98.03;57.63;;;17.60;50.60;;;;;;4903117;28;96006;-83
2024/01/19 11:48:06;;;;;;;99.90;58.05;;;17.60;50.60;;;;;;4896528;28;95091;-84
2024/01/19 11:50:44;;;;;;;97.63;57.58;;;17.50;51.00;;;;;;4898548;28;95403;-82
2024/01/19 11:53:13;;;;;;;98.90;58.30;;;17.60;51.10;;;;;;4899290;28;95051;-81
2024/01/19 11:55:41;;;;;;;100.13;57.83;;;17.70;51.10;;;;;;4901975;28;95689;-80
2024/01/19 11:58:27;;;;;;;97.93;57.63;;;17.60;51.20;;;;;;4898809;28;95079;-79
2024/01/19 12:00:55;;;;;;;98.53;58.03;;;17.50;51.70;;;;;;4899197;28;94940;-79
2024/01/19 12:03:21;;;;;;;98.32;57.33;;;17.60;52.00;;;;;;4906137;28;94688;-79
2024/01/19 12:05:54;;;;;;;101.03;58.35;;;17.70;52.30;;;;;;4898455;28;95202;-83
2024/01/19 12:08:20;;;;;;;98.80;57.90;;;17.40;52.10;;;;;;4904315;28;97101;-77
2024/01/19 12:10:46;;;;;;;99.18;57.67;;;17.50;52.70;;;;;;4903919;28;96453;-77
2024/01/19 12:13:12;;;;;;;99.30;58.45;;;17.60;52.80;;;;;;4897944;28;95448;-77
2024/01/19 12:15:40;;;;;;;98.57;58.17;;;17.70;52.60;;;;;;4892581;28;95373;-88
2024/01/19 12:18:06;;;;;;;101.45;58.50;;;17.70;52.80;;;;;;4899159;28;95472;-79
2024/01/19 12:20:32;;;;;;;97.38;58.47;;;17.70;52.90;;;;;;4903094;28;95403;-80
2024/01/19 12:22:58;;;;;;;98.82;58.10;;;17.70;52.80;;;;;;4899714;28;95412;-79
2024/01/19 12:25:25;;;;;;;105.95;58.65;;;17.70;53.20;;;;;;4897372;28;97465;-78